sensor_id;sensor_type;location;lat;lon;timestamp;P1;durP1;ratioP1;P2;durP2;ratioP2
75691;SDS011;64307;52.508;6.090;2023-06-26T00:02:06;10.70;;;8.98;;
75691;SDS011;64307;52.508;6.090;2023-06-26T00:04:32;8.85;;;6.80;;
75691;SDS011;64307;52.508;6.090;2023-06-26T00:06:58;10.23;;;7.72;;
75691;SDS011;64307;52.508;6.090;2023-06-26T00:09:24;10.15;;;7.07;;
75691;SDS011;64307;52.508;6.090;2023-06-26T00:11:49;9.88;;;7.70;;
75691;SDS011;64307;52.508;6.090;2023-06-26T00:14:15;12.43;;;10.15;;
75691;SDS011;64307;52.508;6.090;2023-06-26T00:16:41;11.25;;;9.05;;
75691;SDS011;64307;52.508;6.090;2023-06-26T00:19:07;10.77;;;8.68;;
75691;SDS011;64307;52.508;6.090;2023-06-26T00:21:33;11.05;;;8.93;;
75691;SDS011;64307;52.508;6.090;2023-06-26T00:23:58;12.00;;;8.68;;
75691;SDS011;64307;52.508;6.090;2023-06-26T00:26:23;10.68;;;8.88;;
75691;SDS011;64307;52.508;6.090;2023-06-26T00:28:49;12.25;;;8.77;;
75691;SDS011;64307;52.508;6.090;2023-06-26T00:31:14;11.40;;;9.07;;
75691;SDS011;64307;52.508;6.090;2023-06-26T00:33:39;11.75;;;8.02;;
75691;SDS011;64307;52.508;6.090;2023-06-26T00:36:04;11.20;;;9.00;;
75691;SDS011;64307;52.508;6.090;2023-06-26T00:38:30;10.55;;;8.32;;
75691;SDS011;64307;52.508;6.090;2023-06-26T00:40:55;11.33;;;9.37;;
75691;SDS011;64307;52.508;6.090;2023-06-26T00:43:21;11.93;;;10.02;;
75691;SDS011;64307;52.508;6.090;2023-06-26T00:45:48;11.30;;;9.25;;
75691;SDS011;64307;52.508;6.090;2023-06-26T00:48:13;12.23;;;8.65;;
75691;SDS011;64307;52.508;6.090;2023-06-26T00:50:38;11.43;;;9.25;;
75691;SDS011;64307;52.508;6.090;2023-06-26T00:53:05;12.38;;;9.35;;
75691;SDS011;64307;52.508;6.090;2023-06-26T00:55:30;10.57;;;8.15;;
75691;SDS011;64307;52.508;6.090;2023-06-26T00:57:56;11.70;;;8.50;;
75691;SDS011;64307;52.508;6.090;2023-06-26T01:00:21;11.27;;;8.63;;
75691;SDS011;64307;52.508;6.090;2023-06-26T01:02:48;11.43;;;9.60;;
75691;SDS011;64307;52.508;6.090;2023-06-26T01:05:14;11.23;;;9.50;;
75691;SDS011;64307;52.508;6.090;2023-06-26T01:07:45;12.98;;;9.38;;
75691;SDS011;64307;52.508;6.090;2023-06-26T01:10:15;11.55;;;8.23;;
75691;SDS011;64307;52.508;6.090;2023-06-26T01:12:40;11.40;;;9.80;;
75691;SDS011;64307;52.508;6.090;2023-06-26T01:15:06;11.63;;;9.70;;
75691;SDS011;64307;52.508;6.090;2023-06-26T01:17:32;12.27;;;10.25;;
75691;SDS011;64307;52.508;6.090;2023-06-26T01:19:58;13.73;;;9.38;;
75691;SDS011;64307;52.508;6.090;2023-06-26T01:25:31;12.65;;;9.02;;
75691;SDS011;64307;52.508;6.090;2023-06-26T01:28:06;13.75;;;10.23;;
75691;SDS011;64307;52.508;6.090;2023-06-26T01:30:32;14.13;;;10.02;;
75691;SDS011;64307;52.508;6.090;2023-06-26T01:33:01;14.02;;;10.77;;
75691;SDS011;64307;52.508;6.090;2023-06-26T01:35:27;13.45;;;9.80;;
75691;SDS011;64307;52.508;6.090;2023-06-26T01:37:53;14.68;;;10.93;;
75691;SDS011;64307;52.508;6.090;2023-06-26T01:40:19;13.70;;;10.10;;
75691;SDS011;64307;52.508;6.090;2023-06-26T01:42:44;13.65;;;11.23;;
75691;SDS011;64307;52.508;6.090;2023-06-26T01:45:11;12.43;;;10.83;;
75691;SDS011;64307;52.508;6.090;2023-06-26T01:47:40;14.40;;;11.35;;
75691;SDS011;64307;52.508;6.090;2023-06-26T01:50:15;14.35;;;10.88;;
75691;SDS011;64307;52.508;6.090;2023-06-26T01:53:17;18.27;;;11.18;;
75691;SDS011;64307;52.508;6.090;2023-06-26T01:55:44;12.73;;;10.27;;
75691;SDS011;64307;52.508;6.090;2023-06-26T01:58:13;11.63;;;9.50;;
75691;SDS011;64307;52.508;6.090;2023-06-26T02:00:39;13.35;;;10.57;;
75691;SDS011;64307;52.508;6.090;2023-06-26T02:03:05;13.73;;;11.57;;
75691;SDS011;64307;52.508;6.090;2023-06-26T02:05:31;14.02;;;10.25;;
75691;SDS011;64307;52.508;6.090;2023-06-26T02:07:57;13.63;;;10.77;;
75691;SDS011;64307;52.508;6.090;2023-06-26T02:10:22;12.70;;;9.93;;
75691;SDS011;64307;52.508;6.090;2023-06-26T02:12:47;13.07;;;9.87;;
75691;SDS011;64307;52.508;6.090;2023-06-26T02:15:13;12.20;;;10.15;;
75691;SDS011;64307;52.508;6.090;2023-06-26T02:17:38;12.52;;;10.63;;
75691;SDS011;64307;52.508;6.090;2023-06-26T02:20:03;13.60;;;10.33;;
75691;SDS011;64307;52.508;6.090;2023-06-26T02:22:30;13.25;;;10.65;;
75691;SDS011;64307;52.508;6.090;2023-06-26T02:24:56;12.43;;;10.00;;
75691;SDS011;64307;52.508;6.090;2023-06-26T02:27:21;10.67;;;8.53;;
75691;SDS011;64307;52.508;6.090;2023-06-26T02:29:46;10.37;;;8.33;;
75691;SDS011;64307;52.508;6.090;2023-06-26T02:32:11;11.07;;;8.23;;
75691;SDS011;64307;52.508;6.090;2023-06-26T02:34:37;10.77;;;8.27;;
75691;SDS011;64307;52.508;6.090;2023-06-26T02:37:02;10.02;;;7.93;;
75691;SDS011;64307;52.508;6.090;2023-06-26T02:39:27;11.13;;;8.07;;
75691;SDS011;64307;52.508;6.090;2023-06-26T02:41:53;10.65;;;8.30;;
75691;SDS011;64307;52.508;6.090;2023-06-26T02:44:18;12.75;;;7.97;;
75691;SDS011;64307;52.508;6.090;2023-06-26T02:46:44;11.73;;;8.30;;
75691;SDS011;64307;52.508;6.090;2023-06-26T02:49:10;12.43;;;8.32;;
75691;SDS011;64307;52.508;6.090;2023-06-26T02:51:36;10.10;;;7.90;;
75691;SDS011;64307;52.508;6.090;2023-06-26T02:54:01;10.95;;;8.55;;
75691;SDS011;64307;52.508;6.090;2023-06-26T02:56:27;11.10;;;8.68;;
75691;SDS011;64307;52.508;6.090;2023-06-26T02:58:53;10.05;;;8.50;;
75691;SDS011;64307;52.508;6.090;2023-06-26T03:01:19;12.20;;;8.30;;
75691;SDS011;64307;52.508;6.090;2023-06-26T03:03:45;10.15;;;8.63;;
75691;SDS011;64307;52.508;6.090;2023-06-26T03:06:12;11.73;;;9.10;;
75691;SDS011;64307;52.508;6.090;2023-06-26T03:08:38;10.40;;;8.68;;
75691;SDS011;64307;52.508;6.090;2023-06-26T03:11:06;10.95;;;8.88;;
75691;SDS011;64307;52.508;6.090;2023-06-26T03:13:32;11.98;;;9.80;;
75691;SDS011;64307;52.508;6.090;2023-06-26T03:15:59;14.15;;;9.30;;
75691;SDS011;64307;52.508;6.090;2023-06-26T03:18:24;10.18;;;8.10;;
75691;SDS011;64307;52.508;6.090;2023-06-26T03:20:49;11.23;;;7.65;;
75691;SDS011;64307;52.508;6.090;2023-06-26T03:23:15;11.68;;;8.00;;
75691;SDS011;64307;52.508;6.090;2023-06-26T03:25:40;12.33;;;7.13;;
75691;SDS011;64307;52.508;6.090;2023-06-26T03:28:05;13.07;;;6.83;;
75691;SDS011;64307;52.508;6.090;2023-06-26T03:30:30;11.77;;;6.40;;
75691;SDS011;64307;52.508;6.090;2023-06-26T03:32:56;10.73;;;6.68;;
75691;SDS011;64307;52.508;6.090;2023-06-26T03:35:21;9.02;;;6.28;;
75691;SDS011;64307;52.508;6.090;2023-06-26T03:37:48;11.25;;;5.47;;
75691;SDS011;64307;52.508;6.090;2023-06-26T03:40:13;9.18;;;5.97;;
75691;SDS011;64307;52.508;6.090;2023-06-26T03:42:39;11.00;;;6.60;;
75691;SDS011;64307;52.508;6.090;2023-06-26T03:45:04;10.85;;;6.18;;
75691;SDS011;64307;52.508;6.090;2023-06-26T03:47:30;12.02;;;6.65;;
75691;SDS011;64307;52.508;6.090;2023-06-26T03:49:55;10.05;;;6.15;;
75691;SDS011;64307;52.508;6.090;2023-06-26T03:52:21;19.27;;;7.17;;
75691;SDS011;64307;52.508;6.090;2023-06-26T03:54:46;11.87;;;6.00;;
75691;SDS011;64307;52.508;6.090;2023-06-26T03:57:11;10.90;;;6.60;;
75691;SDS011;64307;52.508;6.090;2023-06-26T03:59:36;11.60;;;6.43;;
75691;SDS011;64307;52.508;6.090;2023-06-26T04:02:02;8.15;;;5.60;;
75691;SDS011;64307;52.508;6.090;2023-06-26T04:04:28;8.30;;;5.35;;
75691;SDS011;64307;52.508;6.090;2023-06-26T04:06:53;9.88;;;5.70;;
75691;SDS011;64307;52.508;6.090;2023-06-26T04:09:19;9.05;;;5.38;;
75691;SDS011;64307;52.508;6.090;2023-06-26T04:11:44;10.52;;;5.00;;
75691;SDS011;64307;52.508;6.090;2023-06-26T04:14:10;11.60;;;5.57;;
75691;SDS011;64307;52.508;6.090;2023-06-26T04:16:35;9.52;;;4.68;;
75691;SDS011;64307;52.508;6.090;2023-06-26T04:19:00;10.17;;;5.50;;
75691;SDS011;64307;52.508;6.090;2023-06-26T04:21:27;12.70;;;5.50;;
75691;SDS011;64307;52.508;6.090;2023-06-26T04:23:52;10.80;;;4.60;;
75691;SDS011;64307;52.508;6.090;2023-06-26T04:26:18;8.98;;;4.35;;
75691;SDS011;64307;52.508;6.090;2023-06-26T04:28:43;11.13;;;4.75;;
75691;SDS011;64307;52.508;6.090;2023-06-26T04:31:08;10.77;;;5.03;;
75691;SDS011;64307;52.508;6.090;2023-06-26T04:33:34;9.38;;;5.60;;
75691;SDS011;64307;52.508;6.090;2023-06-26T04:36:03;8.88;;;4.95;;
75691;SDS011;64307;52.508;6.090;2023-06-26T04:38:30;9.50;;;5.70;;
75691;SDS011;64307;52.508;6.090;2023-06-26T04:40:56;12.07;;;5.47;;
75691;SDS011;64307;52.508;6.090;2023-06-26T04:43:21;13.77;;;5.45;;
75691;SDS011;64307;52.508;6.090;2023-06-26T04:45:46;14.90;;;5.15;;
75691;SDS011;64307;52.508;6.090;2023-06-26T04:48:12;13.27;;;4.27;;
75691;SDS011;64307;52.508;6.090;2023-06-26T04:50:39;12.80;;;5.75;;
75691;SDS011;64307;52.508;6.090;2023-06-26T04:53:05;15.95;;;5.72;;
75691;SDS011;64307;52.508;6.090;2023-06-26T04:55:30;14.63;;;4.68;;
75691;SDS011;64307;52.508;6.090;2023-06-26T04:57:55;13.68;;;5.15;;
75691;SDS011;64307;52.508;6.090;2023-06-26T05:00:22;12.48;;;4.47;;
75691;SDS011;64307;52.508;6.090;2023-06-26T05:02:49;13.30;;;4.72;;
75691;SDS011;64307;52.508;6.090;2023-06-26T05:05:23;15.10;;;4.38;;
75691;SDS011;64307;52.508;6.090;2023-06-26T05:07:49;14.60;;;4.75;;
75691;SDS011;64307;52.508;6.090;2023-06-26T05:10:14;10.70;;;4.47;;
75691;SDS011;64307;52.508;6.090;2023-06-26T05:12:40;13.68;;;5.22;;
75691;SDS011;64307;52.508;6.090;2023-06-26T05:15:05;12.82;;;5.00;;
75691;SDS011;64307;52.508;6.090;2023-06-26T05:17:31;12.80;;;4.78;;
75691;SDS011;64307;52.508;6.090;2023-06-26T05:19:56;10.60;;;4.40;;
75691;SDS011;64307;52.508;6.090;2023-06-26T05:22:21;15.60;;;5.13;;
75691;SDS011;64307;52.508;6.090;2023-06-26T05:24:47;13.20;;;3.88;;
75691;SDS011;64307;52.508;6.090;2023-06-26T05:27:15;10.45;;;4.60;;
75691;SDS011;64307;52.508;6.090;2023-06-26T05:29:46;12.55;;;4.03;;
75691;SDS011;64307;52.508;6.090;2023-06-26T05:32:12;9.60;;;3.97;;
75691;SDS011;64307;52.508;6.090;2023-06-26T05:34:42;9.07;;;3.85;;
75691;SDS011;64307;52.508;6.090;2023-06-26T05:37:09;9.45;;;3.28;;
75691;SDS011;64307;52.508;6.090;2023-06-26T05:39:39;6.75;;;3.03;;
75691;SDS011;64307;52.508;6.090;2023-06-26T05:42:06;12.75;;;3.33;;
75691;SDS011;64307;52.508;6.090;2023-06-26T05:44:32;6.20;;;2.90;;
75691;SDS011;64307;52.508;6.090;2023-06-26T05:46:58;6.18;;;2.60;;
75691;SDS011;64307;52.508;6.090;2023-06-26T05:49:23;7.15;;;3.10;;
75691;SDS011;64307;52.508;6.090;2023-06-26T05:51:48;4.57;;;2.40;;
75691;SDS011;64307;52.508;6.090;2023-06-26T05:54:14;7.03;;;2.53;;
75691;SDS011;64307;52.508;6.090;2023-06-26T05:56:41;8.00;;;2.70;;
75691;SDS011;64307;52.508;6.090;2023-06-26T05:59:06;9.10;;;2.85;;
75691;SDS011;64307;52.508;6.090;2023-06-26T06:01:33;8.18;;;2.60;;
75691;SDS011;64307;52.508;6.090;2023-06-26T06:03:59;5.25;;;2.15;;
75691;SDS011;64307;52.508;6.090;2023-06-26T06:06:24;5.67;;;1.60;;
75691;SDS011;64307;52.508;6.090;2023-06-26T06:08:49;3.05;;;1.05;;
75691;SDS011;64307;52.508;6.090;2023-06-26T06:11:15;6.43;;;1.57;;
75691;SDS011;64307;52.508;6.090;2023-06-26T06:13:40;4.45;;;1.52;;
75691;SDS011;64307;52.508;6.090;2023-06-26T06:16:05;4.70;;;1.40;;
75691;SDS011;64307;52.508;6.090;2023-06-26T06:18:30;4.50;;;1.03;;
75691;SDS011;64307;52.508;6.090;2023-06-26T06:20:56;10.13;;;1.97;;
75691;SDS011;64307;52.508;6.090;2023-06-26T06:23:21;4.37;;;1.47;;
75691;SDS011;64307;52.508;6.090;2023-06-26T06:25:48;4.43;;;1.30;;
75691;SDS011;64307;52.508;6.090;2023-06-26T06:28:13;8.43;;;1.83;;
75691;SDS011;64307;52.508;6.090;2023-06-26T06:30:41;5.18;;;1.30;;
75691;SDS011;64307;52.508;6.090;2023-06-26T06:33:06;4.35;;;1.35;;
75691;SDS011;64307;52.508;6.090;2023-06-26T06:35:32;4.67;;;1.60;;
75691;SDS011;64307;52.508;6.090;2023-06-26T06:37:57;3.73;;;1.60;;
75691;SDS011;64307;52.508;6.090;2023-06-26T06:40:22;4.90;;;1.50;;
75691;SDS011;64307;52.508;6.090;2023-06-26T06:42:47;5.38;;;1.52;;
75691;SDS011;64307;52.508;6.090;2023-06-26T06:45:13;6.47;;;1.77;;
75691;SDS011;64307;52.508;6.090;2023-06-26T06:47:38;5.22;;;1.85;;
75691;SDS011;64307;52.508;6.090;2023-06-26T06:50:04;5.20;;;1.77;;
75691;SDS011;64307;52.508;6.090;2023-06-26T06:52:36;4.25;;;1.50;;
75691;SDS011;64307;52.508;6.090;2023-06-26T06:55:05;6.78;;;1.85;;
75691;SDS011;64307;52.508;6.090;2023-06-26T06:57:33;5.75;;;2.03;;
75691;SDS011;64307;52.508;6.090;2023-06-26T07:00:01;4.25;;;1.50;;
75691;SDS011;64307;52.508;6.090;2023-06-26T07:02:29;6.82;;;1.30;;
75691;SDS011;64307;52.508;6.090;2023-06-26T07:04:55;5.82;;;1.92;;
75691;SDS011;64307;52.508;6.090;2023-06-26T07:07:20;8.80;;;1.85;;
75691;SDS011;64307;52.508;6.090;2023-06-26T07:09:45;4.47;;;1.43;;
75691;SDS011;64307;52.508;6.090;2023-06-26T07:12:11;5.68;;;1.70;;
75691;SDS011;64307;52.508;6.090;2023-06-26T07:14:36;4.13;;;1.40;;
75691;SDS011;64307;52.508;6.090;2023-06-26T07:17:01;5.88;;;1.95;;
75691;SDS011;64307;52.508;6.090;2023-06-26T07:19:26;6.47;;;1.85;;
75691;SDS011;64307;52.508;6.090;2023-06-26T07:21:52;4.68;;;1.52;;
75691;SDS011;64307;52.508;6.090;2023-06-26T07:24:17;6.70;;;1.90;;
75691;SDS011;64307;52.508;6.090;2023-06-26T07:26:42;4.18;;;1.35;;
75691;SDS011;64307;52.508;6.090;2023-06-26T07:29:08;4.60;;;1.48;;
75691;SDS011;64307;52.508;6.090;2023-06-26T07:31:33;5.45;;;1.50;;
75691;SDS011;64307;52.508;6.090;2023-06-26T07:33:59;5.38;;;1.80;;
75691;SDS011;64307;52.508;6.090;2023-06-26T07:36:24;7.28;;;1.48;;
75691;SDS011;64307;52.508;6.090;2023-06-26T07:38:49;7.70;;;1.97;;
75691;SDS011;64307;52.508;6.090;2023-06-26T07:41:15;5.97;;;2.00;;
75691;SDS011;64307;52.508;6.090;2023-06-26T07:43:40;6.97;;;2.27;;
75691;SDS011;64307;52.508;6.090;2023-06-26T07:46:05;4.53;;;1.67;;
75691;SDS011;64307;52.508;6.090;2023-06-26T07:48:30;4.17;;;1.50;;
75691;SDS011;64307;52.508;6.090;2023-06-26T07:50:56;4.38;;;1.80;;
75691;SDS011;64307;52.508;6.090;2023-06-26T07:53:21;3.00;;;1.47;;
75691;SDS011;64307;52.508;6.090;2023-06-26T07:55:46;5.78;;;1.98;;
75691;SDS011;64307;52.508;6.090;2023-06-26T07:58:12;4.07;;;1.88;;
75691;SDS011;64307;52.508;6.090;2023-06-26T08:00:37;5.70;;;1.42;;
75691;SDS011;64307;52.508;6.090;2023-06-26T08:03:03;3.58;;;1.38;;
75691;SDS011;64307;52.508;6.090;2023-06-26T08:05:28;3.90;;;1.40;;
75691;SDS011;64307;52.508;6.090;2023-06-26T08:07:54;6.22;;;1.77;;
75691;SDS011;64307;52.508;6.090;2023-06-26T08:10:19;5.82;;;1.38;;
75691;SDS011;64307;52.508;6.090;2023-06-26T08:12:44;3.45;;;1.50;;
75691;SDS011;64307;52.508;6.090;2023-06-26T08:15:10;3.88;;;1.40;;
75691;SDS011;64307;52.508;6.090;2023-06-26T08:17:37;4.35;;;1.60;;
75691;SDS011;64307;52.508;6.090;2023-06-26T08:20:03;4.93;;;1.58;;
75691;SDS011;64307;52.508;6.090;2023-06-26T08:22:29;8.52;;;2.00;;
75691;SDS011;64307;52.508;6.090;2023-06-26T08:24:54;7.82;;;1.67;;
75691;SDS011;64307;52.508;6.090;2023-06-26T08:27:19;4.80;;;1.20;;
75691;SDS011;64307;52.508;6.090;2023-06-26T08:29:45;4.80;;;1.73;;
75691;SDS011;64307;52.508;6.090;2023-06-26T08:32:10;4.57;;;2.08;;
75691;SDS011;64307;52.508;6.090;2023-06-26T08:34:35;5.88;;;1.60;;
75691;SDS011;64307;52.508;6.090;2023-06-26T08:37:01;6.85;;;1.83;;
75691;SDS011;64307;52.508;6.090;2023-06-26T08:39:26;5.47;;;1.90;;
75691;SDS011;64307;52.508;6.090;2023-06-26T08:41:52;4.63;;;1.83;;
75691;SDS011;64307;52.508;6.090;2023-06-26T08:44:17;10.27;;;2.00;;
75691;SDS011;64307;52.508;6.090;2023-06-26T08:46:43;8.53;;;2.03;;
75691;SDS011;64307;52.508;6.090;2023-06-26T08:49:17;7.35;;;2.08;;
75691;SDS011;64307;52.508;6.090;2023-06-26T08:51:49;6.70;;;2.25;;
75691;SDS011;64307;52.508;6.090;2023-06-26T08:54:28;7.82;;;2.25;;
75691;SDS011;64307;52.508;6.090;2023-06-26T08:56:59;13.85;;;2.92;;
75691;SDS011;64307;52.508;6.090;2023-06-26T08:59:24;9.98;;;1.90;;
75691;SDS011;64307;52.508;6.090;2023-06-26T09:01:51;6.40;;;2.58;;
75691;SDS011;64307;52.508;6.090;2023-06-26T09:04:16;7.05;;;2.95;;
75691;SDS011;64307;52.508;6.090;2023-06-26T09:06:42;10.38;;;2.47;;
75691;SDS011;64307;52.508;6.090;2023-06-26T09:09:07;5.53;;;2.03;;
75691;SDS011;64307;52.508;6.090;2023-06-26T09:11:32;7.50;;;2.00;;
75691;SDS011;64307;52.508;6.090;2023-06-26T09:13:58;9.57;;;2.22;;
75691;SDS011;64307;52.508;6.090;2023-06-26T09:16:25;5.00;;;2.00;;
75691;SDS011;64307;52.508;6.090;2023-06-26T09:18:53;7.95;;;2.67;;
75691;SDS011;64307;52.508;6.090;2023-06-26T09:21:21;9.38;;;2.72;;
75691;SDS011;64307;52.508;6.090;2023-06-26T09:23:47;8.88;;;2.20;;
75691;SDS011;64307;52.508;6.090;2023-06-26T09:26:14;6.78;;;1.80;;
75691;SDS011;64307;52.508;6.090;2023-06-26T09:28:41;7.68;;;2.22;;
75691;SDS011;64307;52.508;6.090;2023-06-26T09:31:07;7.28;;;1.73;;
75691;SDS011;64307;52.508;6.090;2023-06-26T09:33:36;7.53;;;1.83;;
75691;SDS011;64307;52.508;6.090;2023-06-26T09:36:06;4.18;;;2.17;;
75691;SDS011;64307;52.508;6.090;2023-06-26T09:38:34;8.40;;;2.50;;
75691;SDS011;64307;52.508;6.090;2023-06-26T09:41:02;7.55;;;1.90;;
75691;SDS011;64307;52.508;6.090;2023-06-26T09:43:28;8.00;;;2.08;;
75691;SDS011;64307;52.508;6.090;2023-06-26T09:45:53;8.75;;;2.30;;
75691;SDS011;64307;52.508;6.090;2023-06-26T09:48:19;12.80;;;2.67;;
75691;SDS011;64307;52.508;6.090;2023-06-26T09:50:45;13.50;;;2.90;;
75691;SDS011;64307;52.508;6.090;2023-06-26T09:53:11;15.07;;;3.13;;
75691;SDS011;64307;52.508;6.090;2023-06-26T09:55:43;7.45;;;1.63;;
75691;SDS011;64307;52.508;6.090;2023-06-26T09:58:10;4.95;;;1.70;;
75691;SDS011;64307;52.508;6.090;2023-06-26T10:00:39;10.55;;;1.77;;
75691;SDS011;64307;52.508;6.090;2023-06-26T10:03:08;9.82;;;1.90;;
75691;SDS011;64307;52.508;6.090;2023-06-26T10:05:34;10.18;;;2.03;;
75691;SDS011;64307;52.508;6.090;2023-06-26T10:08:00;4.63;;;1.73;;
75691;SDS011;64307;52.508;6.090;2023-06-26T10:10:27;7.45;;;2.20;;
75691;SDS011;64307;52.508;6.090;2023-06-26T10:12:54;5.32;;;1.50;;
75691;SDS011;64307;52.508;6.090;2023-06-26T10:15:25;5.18;;;1.58;;
75691;SDS011;64307;52.508;6.090;2023-06-26T10:17:54;8.07;;;1.73;;
75691;SDS011;64307;52.508;6.090;2023-06-26T10:20:21;7.63;;;1.77;;
75691;SDS011;64307;52.508;6.090;2023-06-26T10:22:47;4.70;;;1.42;;
75691;SDS011;64307;52.508;6.090;2023-06-26T10:25:19;5.15;;;1.50;;
75691;SDS011;64307;52.508;6.090;2023-06-26T10:27:51;4.28;;;1.80;;
75691;SDS011;64307;52.508;6.090;2023-06-26T10:30:20;5.53;;;1.48;;
75691;SDS011;64307;52.508;6.090;2023-06-26T10:32:50;4.28;;;1.77;;
75691;SDS011;64307;52.508;6.090;2023-06-26T10:35:16;5.45;;;1.83;;
75691;SDS011;64307;52.508;6.090;2023-06-26T10:37:46;5.40;;;1.30;;
75691;SDS011;64307;52.508;6.090;2023-06-26T10:40:13;4.43;;;1.35;;
75691;SDS011;64307;52.508;6.090;2023-06-26T10:42:46;4.55;;;1.45;;
75691;SDS011;64307;52.508;6.090;2023-06-26T10:45:20;10.27;;;1.63;;
75691;SDS011;64307;52.508;6.090;2023-06-26T10:47:46;3.97;;;1.55;;
75691;SDS011;64307;52.508;6.090;2023-06-26T10:50:16;6.72;;;2.08;;
75691;SDS011;64307;52.508;6.090;2023-06-26T10:55:32;5.90;;;1.50;;
75691;SDS011;64307;52.508;6.090;2023-06-26T10:57:58;5.90;;;1.73;;
75691;SDS011;64307;52.508;6.090;2023-06-26T11:00:23;5.33;;;1.20;;
75691;SDS011;64307;52.508;6.090;2023-06-26T11:02:48;4.45;;;1.48;;
75691;SDS011;64307;52.508;6.090;2023-06-26T11:05:23;6.18;;;1.20;;
75691;SDS011;64307;52.508;6.090;2023-06-26T11:08:08;3.80;;;1.08;;
75691;SDS011;64307;52.508;6.090;2023-06-26T11:10:51;6.53;;;1.20;;
75691;SDS011;64307;52.508;6.090;2023-06-26T11:13:19;3.53;;;0.90;;
75691;SDS011;64307;52.508;6.090;2023-06-26T11:15:45;5.00;;;1.42;;
75691;SDS011;64307;52.508;6.090;2023-06-26T11:18:12;4.47;;;1.45;;
75691;SDS011;64307;52.508;6.090;2023-06-26T11:20:38;5.28;;;0.85;;
75691;SDS011;64307;52.508;6.090;2023-06-26T11:23:04;4.55;;;0.93;;
75691;SDS011;64307;52.508;6.090;2023-06-26T11:25:34;3.80;;;1.02;;
75691;SDS011;64307;52.508;6.090;2023-06-26T11:28:03;4.65;;;0.80;;
75691;SDS011;64307;52.508;6.090;2023-06-26T11:30:30;8.50;;;1.13;;
75691;SDS011;64307;52.508;6.090;2023-06-26T11:33:05;5.38;;;1.15;;
75691;SDS011;64307;52.508;6.090;2023-06-26T11:35:35;7.55;;;1.02;;
75691;SDS011;64307;52.508;6.090;2023-06-26T11:38:00;5.13;;;0.77;;
75691;SDS011;64307;52.508;6.090;2023-06-26T11:40:30;5.00;;;1.00;;
75691;SDS011;64307;52.508;6.090;2023-06-26T11:42:57;6.38;;;0.85;;
75691;SDS011;64307;52.508;6.090;2023-06-26T11:45:24;6.60;;;1.13;;
75691;SDS011;64307;52.508;6.090;2023-06-26T11:47:49;7.05;;;0.73;;
75691;SDS011;64307;52.508;6.090;2023-06-26T11:50:18;10.82;;;1.15;;
75691;SDS011;64307;52.508;6.090;2023-06-26T11:52:44;5.65;;;0.90;;
75691;SDS011;64307;52.508;6.090;2023-06-26T11:55:10;7.68;;;0.68;;
75691;SDS011;64307;52.508;6.090;2023-06-26T11:57:35;13.45;;;1.30;;
75691;SDS011;64307;52.508;6.090;2023-06-26T12:00:14;5.50;;;1.02;;
75691;SDS011;64307;52.508;6.090;2023-06-26T12:02:41;6.32;;;1.10;;
75691;SDS011;64307;52.508;6.090;2023-06-26T12:05:08;7.00;;;0.70;;
75691;SDS011;64307;52.508;6.090;2023-06-26T12:07:34;6.90;;;1.25;;
75691;SDS011;64307;52.508;6.090;2023-06-26T12:10:01;7.65;;;1.25;;
75691;SDS011;64307;52.508;6.090;2023-06-26T12:12:28;6.78;;;0.65;;
75691;SDS011;64307;52.508;6.090;2023-06-26T12:14:58;3.72;;;0.90;;
75691;SDS011;64307;52.508;6.090;2023-06-26T12:17:25;5.22;;;0.98;;
75691;SDS011;64307;52.508;6.090;2023-06-26T12:19:50;4.38;;;0.80;;
75691;SDS011;64307;52.508;6.090;2023-06-26T12:22:16;9.05;;;1.02;;
75691;SDS011;64307;52.508;6.090;2023-06-26T12:24:43;5.00;;;0.77;;
75691;SDS011;64307;52.508;6.090;2023-06-26T12:27:09;5.00;;;0.77;;
75691;SDS011;64307;52.508;6.090;2023-06-26T12:29:36;4.53;;;1.00;;
75691;SDS011;64307;52.508;6.090;2023-06-26T12:32:02;4.35;;;0.73;;
75691;SDS011;64307;52.508;6.090;2023-06-26T12:34:31;7.43;;;1.00;;
75691;SDS011;64307;52.508;6.090;2023-06-26T12:37:02;4.20;;;0.45;;
75691;SDS011;64307;52.508;6.090;2023-06-26T12:39:29;5.50;;;0.98;;
75691;SDS011;64307;52.508;6.090;2023-06-26T12:41:57;6.07;;;1.15;;
75691;SDS011;64307;52.508;6.090;2023-06-26T12:44:26;4.03;;;0.93;;
75691;SDS011;64307;52.508;6.090;2023-06-26T12:46:54;4.43;;;0.80;;
75691;SDS011;64307;52.508;6.090;2023-06-26T12:49:39;13.68;;;1.23;;
75691;SDS011;64307;52.508;6.090;2023-06-26T12:52:06;3.50;;;0.70;;
75691;SDS011;64307;52.508;6.090;2023-06-26T12:54:34;4.88;;;0.60;;
75691;SDS011;64307;52.508;6.090;2023-06-26T12:57:00;7.95;;;1.02;;
75691;SDS011;64307;52.508;6.090;2023-06-26T12:59:26;5.57;;;0.90;;
75691;SDS011;64307;52.508;6.090;2023-06-26T13:01:51;4.78;;;0.90;;
75691;SDS011;64307;52.508;6.090;2023-06-26T13:04:17;6.53;;;1.00;;
75691;SDS011;64307;52.508;6.090;2023-06-26T13:06:42;6.15;;;1.20;;
75691;SDS011;64307;52.508;6.090;2023-06-26T13:09:08;8.70;;;1.08;;
75691;SDS011;64307;52.508;6.090;2023-06-26T13:11:33;5.82;;;0.80;;
75691;SDS011;64307;52.508;6.090;2023-06-26T13:14:00;5.20;;;1.17;;
75691;SDS011;64307;52.508;6.090;2023-06-26T13:16:25;19.30;;;1.73;;
75691;SDS011;64307;52.508;6.090;2023-06-26T13:18:51;9.00;;;0.95;;
75691;SDS011;64307;52.508;6.090;2023-06-26T13:21:16;3.83;;;1.30;;
75691;SDS011;64307;52.508;6.090;2023-06-26T13:23:42;5.20;;;0.73;;
75691;SDS011;64307;52.508;6.090;2023-06-26T13:26:08;5.22;;;0.93;;
75691;SDS011;64307;52.508;6.090;2023-06-26T13:28:34;5.10;;;1.30;;
75691;SDS011;64307;52.508;6.090;2023-06-26T13:30:59;4.77;;;0.90;;
75691;SDS011;64307;52.508;6.090;2023-06-26T13:33:24;4.28;;;1.00;;
75691;SDS011;64307;52.508;6.090;2023-06-26T13:35:50;5.47;;;0.77;;
75691;SDS011;64307;52.508;6.090;2023-06-26T13:38:17;5.05;;;0.88;;
75691;SDS011;64307;52.508;6.090;2023-06-26T13:40:42;3.63;;;1.17;;
75691;SDS011;64307;52.508;6.090;2023-06-26T13:43:08;3.72;;;0.82;;
75691;SDS011;64307;52.508;6.090;2023-06-26T13:45:33;5.28;;;0.90;;
75691;SDS011;64307;52.508;6.090;2023-06-26T13:47:58;3.85;;;0.50;;
75691;SDS011;64307;52.508;6.090;2023-06-26T13:50:23;5.63;;;1.15;;
75691;SDS011;64307;52.508;6.090;2023-06-26T13:52:49;7.93;;;0.90;;
75691;SDS011;64307;52.508;6.090;2023-06-26T13:55:14;8.25;;;0.90;;
75691;SDS011;64307;52.508;6.090;2023-06-26T13:57:39;5.03;;;1.05;;
75691;SDS011;64307;52.508;6.090;2023-06-26T14:00:07;5.13;;;0.70;;
75691;SDS011;64307;52.508;6.090;2023-06-26T14:02:33;4.93;;;1.33;;
75691;SDS011;64307;52.508;6.090;2023-06-26T14:04:59;3.08;;;0.80;;
75691;SDS011;64307;52.508;6.090;2023-06-26T14:07:24;9.05;;;1.00;;
75691;SDS011;64307;52.508;6.090;2023-06-26T14:09:49;5.45;;;1.00;;
75691;SDS011;64307;52.508;6.090;2023-06-26T14:12:15;3.78;;;0.63;;
75691;SDS011;64307;52.508;6.090;2023-06-26T14:14:40;6.72;;;1.00;;
75691;SDS011;64307;52.508;6.090;2023-06-26T14:17:05;4.47;;;1.00;;
75691;SDS011;64307;52.508;6.090;2023-06-26T14:19:31;5.22;;;0.73;;
75691;SDS011;64307;52.508;6.090;2023-06-26T14:21:56;8.45;;;1.23;;
75691;SDS011;64307;52.508;6.090;2023-06-26T14:24:22;4.82;;;0.80;;
75691;SDS011;64307;52.508;6.090;2023-06-26T14:26:47;3.80;;;0.93;;
75691;SDS011;64307;52.508;6.090;2023-06-26T14:29:12;4.43;;;0.80;;
75691;SDS011;64307;52.508;6.090;2023-06-26T14:31:40;4.25;;;1.15;;
75691;SDS011;64307;52.508;6.090;2023-06-26T14:34:05;5.10;;;1.02;;
75691;SDS011;64307;52.508;6.090;2023-06-26T14:36:32;6.72;;;0.77;;
75691;SDS011;64307;52.508;6.090;2023-06-26T14:38:57;5.28;;;0.85;;
75691;SDS011;64307;52.508;6.090;2023-06-26T14:41:25;5.32;;;0.73;;
75691;SDS011;64307;52.508;6.090;2023-06-26T14:43:50;3.72;;;1.00;;